Time;durP1;ratioP1;P1;durP2;ratioP2;P2;SDS_P1;SDS_P2;PMS_P1;PMS_P2;Temp;Humidity;BMP_temperature;BMP_pressure;BME280_temperature;BME280_humidity;BME280_pressure;Samples;Min_cycle;Max_cycle;Signal;HPM_P1;HPM_P2
2022/11/18 00:01:21;;;;;;;3.45;1.45;;;;;;;8.37;85.38;97852.78;4454216;32;33862;-74
2022/11/18 00:03:50;;;;;;;1.12;1.10;;;;;;;9.03;79.92;97848.41;4455371;32;35067;-74
2022/11/18 00:06:21;;;;;;;1.08;0.88;;;;;;;8.96;79.54;97843.44;4454225;32;34410;-74
2022/11/18 00:08:51;;;;;;;3.50;2.05;;;;;;;8.87;78.62;97853.19;4454350;32;33551;-74
2022/11/18 00:14:19;;;;;;;0.52;0.52;;;;;;;7.82;83.98;97846.34;4454359;32;35807;-74
2022/11/18 00:16:57;;;;;;;2.62;2.08;;;;;;;7.68;84.49;97844.94;4455326;32;34449;-74
2022/11/18 00:19:36;;;;;;;1.12;1.10;;;;;;;8.57;79.83;97838.47;4455332;32;34597;-74
2022/11/18 00:22:06;;;;;;;2.47;1.33;;;;;;;8.21;78.32;97847.12;4455312;32;34071;-74
2022/11/18 00:24:34;;;;;;;1.35;1.27;;;;;;;8.41;77.41;97846.59;4455231;32;35059;-74
2022/11/18 00:27:03;;;;;;;1.67;1.58;;;;;;;7.37;81.44;97832.69;4454993;32;35225;-74
2022/11/18 00:29:31;;;;;;;1.67;1.52;;;;;;;6.63;85.06;97830.75;4454165;32;33407;-74
2022/11/18 00:31:59;;;;;;;5.50;5.00;;;;;;;6.60;88.83;97829.09;4454850;32;34173;-74
2022/11/18 00:34:27;;;;;;;1.42;1.42;;;;;;;6.91;88.35;97828.47;4455143;32;35928;-74
2022/11/18 00:36:55;;;;;;;2.83;2.35;;;;;;;7.48;85.26;97824.69;4455125;32;34427;-74
2022/11/18 00:39:24;;;;;;;1.75;1.58;;;;;;;7.97;80.52;97822.66;4455180;32;33573;-74
2022/11/18 00:44:40;;;;;;;0.70;0.70;;;;;;;7.26;79.23;97820.87;4455464;32;35758;-74
2022/11/18 00:47:08;;;;;;;3.90;2.70;;;;;;;7.68;77.29;97810.44;4455025;32;34479;-74
2022/11/18 00:49:36;;;;;;;1.20;1.20;;;;;;;6.72;82.28;97816.81;4455007;32;34334;-74
2022/11/18 00:52:05;;;;;;;4.28;2.50;;;;;;;6.05;90.90;97819.75;4455057;32;33989;-74
2022/11/18 00:54:33;;;;;;;2.85;2.35;;;;;;;6.23;93.31;97834.94;4455050;32;35970;-74
2022/11/18 00:57:02;;;;;;;0.65;0.65;;;;;;;6.43;92.89;97833.75;4453806;32;34528;-74
2022/11/18 00:59:31;;;;;;;1.20;1.20;;;;;;;6.93;86.35;97836.22;4454984;32;34222;-74
2022/11/18 01:01:59;;;;;;;0.80;0.80;;;;;;;6.66;87.63;97833.31;4454894;32;33926;-74
2022/11/18 01:04:27;;;;;;;2.25;2.12;;;;;;;6.54;88.65;97821.44;4454834;32;35005;-74
2022/11/18 01:06:56;;;;;;;2.30;2.12;;;;;;;7.02;87.27;97831.72;4454883;32;35201;-74
2022/11/18 01:09:24;;;;;;;1.23;1.12;;;;;;;6.70;86.35;97819.41;4454953;32;33680;-74
2022/11/18 01:14:39;;;;;;;1.85;1.73;;;;;;;6.38;88.59;97801.94;4454944;32;36030;-74
2022/11/18 01:17:07;;;;;;;1.77;1.67;;;;;;;6.54;88.41;97797.31;4454966;32;35289;-74
2022/11/18 01:19:35;;;;;;;1.10;1.10;;;;;;;6.78;87.11;97796.84;4454904;32;33424;-74
2022/11/18 01:22:04;;;;;;;0.80;0.80;;;;;;;7.62;83.60;97790.66;4453664;32;34315;-74
2022/11/18 01:24:33;;;;;;;0.70;0.70;;;;;;;7.70;82.10;97777.56;4454831;32;34901;-74
2022/11/18 01:27:01;;;;;;;2.25;1.95;;;;;;;6.53;91.84;97786.16;4454560;32;35286;-74
2022/11/18 01:29:29;;;;;;;0.68;0.68;;;;;;;6.74;96.12;97776.22;4454794;32;34136;-74
2022/11/18 01:31:58;;;;;;;1.35;1.25;;;;;;;7.11;93.50;97765.97;4454814;32;33843;-74
2022/11/18 01:34:46;;;;;;;1.25;1.25;;;;;;;7.09;91.99;97774.63;4454824;32;35127;-74
2022/11/18 01:37:14;;;;;;;2.75;1.58;;;;;;;8.05;85.02;97775.81;4454450;32;34555;-74
2022/11/18 01:39:42;;;;;;;2.00;1.65;;;;;;;7.40;88.13;97791.19;4454847;32;33613;-74
2022/11/18 01:42:14;;;;;;;2.78;2.35;;;;;;;7.00;91.93;97797.22;4454694;32;33909;-74
2022/11/18 01:44:57;;;;;;;2.35;2.12;;;;;;;7.68;88.14;97800.91;4453696;32;35147;-74
2022/11/18 01:47:32;;;;;;;3.17;2.87;;;;;;;6.88;88.95;97791.47;4454941;32;34664;-74
2022/11/18 01:50:00;;;;;;;0.57;0.57;;;;;;;7.64;85.03;97782.87;4453537;32;34182;-74
2022/11/18 01:52:30;;;;;;;1.62;1.52;;;;;;;7.10;85.91;97797.91;4454616;32;34164;-74
2022/11/18 01:55:03;;;;;;;3.03;2.80;;;;;;;6.55;88.73;97809.38;4453445;32;35879;-74
2022/11/18 01:57:32;;;;;;;1.83;1.25;;;;;;;7.06;88.13;97816.09;4453417;32;35371;-74
2022/11/18 02:00:02;;;;;;;2.78;1.85;;;;;;;7.64;81.89;97809.66;4454536;32;33525;-74
2022/11/18 02:02:32;;;;;;;1.83;1.73;;;;;;;6.69;85.52;97806.50;4453421;32;33809;-74
2022/11/18 02:05:03;;;;;;;1.08;1.05;;;;;;;6.68;86.51;97799.66;4453308;32;34332;-74
2022/11/18 02:07:34;;;;;;;1.17;1.10;;;;;;;7.08;83.60;97798.84;4454548;32;34455;-74
2022/11/18 02:10:04;;;;;;;3.80;2.97;;;;;;;6.69;86.06;97793.56;4454607;32;33442;-74
2022/11/18 02:12:34;;;;;;;0.95;0.95;;;;;;;7.06;85.20;97787.62;4453366;32;33320;-74
2022/11/18 02:15:03;;;;;;;0.62;0.62;;;;;;;7.01;85.93;97792.94;4453247;32;35142;-74
2022/11/18 02:17:46;;;;;;;0.90;0.90;;;;;;;7.13;86.25;97782.31;4453146;32;34669;-74
2022/11/18 02:20:27;;;;;;;2.03;1.58;;;;;;;6.57;90.15;97782.59;4453265;32;33541;-74
2022/11/18 02:23:35;;;;;;;1.65;1.55;;;;;;;6.88;91.04;97776.78;4454328;32;34551;-74
2022/11/18 02:26:18;;;;;;;1.58;1.48;;;;;;;7.50;87.91;97775.41;4454312;32;35147;-74
2022/11/18 02:29:10;;;;;;;2.03;1.87;;;;;;;7.46;87.63;97771.22;4454255;32;35238;-74
2022/11/18 02:31:46;;;;;;;1.65;1.55;;;;;;;7.02;92.32;97773.91;4454187;32;34346;-74
2022/11/18 02:34:37;;;;;;;1.35;1.27;;;;;;;7.29;91.36;97767.28;4453141;32;34024;-74
2022/11/18 02:37:14;;;;;;;0.77;0.77;;;;;;;7.45;90.03;97759.13;4448651;32;35804;-73
2022/11/18 02:40:18;;;;;;;1.70;1.60;;;;;;;7.65;89.93;97751.75;4453167;32;35070;-74
2022/11/18 02:42:51;;;;;;;1.95;0.98;;;;;;;7.67;89.64;97731.84;4448108;32;33412;-74
2022/11/18 02:45:20;;;;;;;0.77;0.77;;;;;;;7.45;92.48;97720.28;4452871;32;34655;-73
2022/11/18 02:47:49;;;;;;;2.30;2.15;;;;;;;7.33;93.41;97722.31;4453060;32;35085;-74
2022/11/18 02:50:22;;;;;;;0.90;0.88;;;;;;;7.67;90.93;97724.06;4453910;32;34442;-74
2022/11/18 02:52:55;;;;;;;2.05;0.85;;;;;;;7.31;92.78;97729.25;4453108;32;33572;-74
2022/11/18 02:55:24;;;;;;;3.80;3.17;;;;;;;7.11;94.75;97728.84;4453014;32;34068;-74
2022/11/18 02:57:53;;;;;;;1.98;1.87;;;;;;;7.51;93.30;97727.94;4454798;32;35292;-74
2022/11/18 03:00:21;;;;;;;2.00;1.90;;;;;;;7.76;91.74;97728.16;4454676;32;34531;-74
2022/11/18 03:02:50;;;;;;;2.70;2.42;;;;;;;7.54;93.87;97731.28;4455731;32;34431;-74
2022/11/18 03:05:24;;;;;;;0.75;0.75;;;;;;;7.90;91.67;97733.84;4455763;32;34854;-74
2022/11/18 03:07:56;;;;;;;1.40;1.30;;;;;;;8.37;88.70;97732.63;4455793;32;36016;-74
2022/11/18 03:10:31;;;;;;;2.62;2.42;;;;;;;8.29;89.21;97735.41;4454675;32;34458;-74
2022/11/18 03:13:09;;;;;;;1.25;0.82;;;;;;;8.04;91.15;97743.00;4454627;32;33352;-74
2022/11/18 03:15:54;;;;;;;1.48;1.37;;;;;;;7.98;91.97;97749.22;4455796;32;33878;-74
2022/11/18 03:18:37;;;;;;;0.80;0.80;;;;;;;7.95;92.72;97741.50;4454580;32;35947;-74
2022/11/18 03:21:08;;;;;;;1.60;1.48;;;;;;;8.51;90.93;97746.94;4454716;32;33913;-74
2022/11/18 03:23:42;;;;;;;0.70;0.70;;;;;;;8.34;90.34;97754.28;4455740;32;33402;-74
2022/11/18 03:26:10;;;;;;;1.27;1.25;;;;;;;9.06;86.96;97748.81;4455509;32;34026;-74
2022/11/18 03:28:42;;;;;;;1.05;0.95;;;;;;;8.56;88.99;97756.31;4455552;32;35864;-74
2022/11/18 03:31:37;;;;;;;1.30;1.20;;;;;;;8.07;92.71;97761.09;4455645;32;34396;-74
2022/11/18 03:34:13;;;;;;;2.78;2.30;;;;;;;8.06;93.27;97754.19;4454448;32;33421;-74
2022/11/18 03:36:46;;;;;;;1.17;1.17;;;;;;;8.20;92.85;97753.81;4454521;32;33866;-74
2022/11/18 03:39:19;;;;;;;1.60;1.50;;;;;;;8.08;93.51;97758.44;4454583;32;35102;-74
2022/11/18 03:41:54;;;;;;;6.70;3.10;;;;;;;7.96;94.56;97751.84;4454298;32;34463;-74
2022/11/18 03:44:27;;;;;;;1.73;1.62;;;;;;;8.45;92.97;97757.50;4454422;32;33701;-74
2022/11/18 03:46:59;;;;;;;0.65;0.65;;;;;;;8.05;94.78;97760.28;4454401;32;33912;-74
2022/11/18 03:49:34;;;;;;;1.98;1.87;;;;;;;8.21;94.51;97776.28;4454305;32;35084;-74
2022/11/18 03:52:17;;;;;;;10.75;3.53;;;;;;;8.21;94.64;97771.94;4454383;32;35208;-74
2022/11/18 03:54:47;;;;;;;2.25;1.55;;;;;;;8.31;93.61;97765.63;4454382;32;33471;-74
2022/11/18 03:57:24;;;;;;;3.50;3.20;;;;;;;8.61;91.92;97757.03;4454332;32;33124;-74
2022/11/18 04:00:12;;;;;;;;;;;;;;;8.68;91.70;97750.78;4454748;32;34927;-74
2022/11/18 04:02:41;;;;;;;1.70;1.60;;;;;;;8.56;92.28;97743.34;4455645;32;35472;-74
2022/11/18 04:05:11;;;;;;;1.52;1.48;;;;;;;9.10;89.16;97740.88;4454226;32;33449;-74
2022/11/18 04:07:58;;;;;;;1.27;0.98;;;;;;;8.98;90.04;97741.25;4453550;32;32919;-74
2022/11/18 04:10:32;;;;;;;1.62;1.55;;;;;;;8.68;91.99;97735.22;4454163;32;35048;-74
2022/11/18 04:13:10;;;;;;;2.42;2.20;;;;;;;8.34;94.10;97725.78;4454272;32;34552;-74
2022/11/18 04:15:40;;;;;;;2.05;1.95;;;;;;;8.14;95.57;97711.59;4454301;32;33428;-74
2022/11/18 04:18:10;;;;;;;3.15;2.95;;;;;;;8.47;93.11;97701.22;4454106;32;34615;-74
2022/11/18 04:20:38;;;;;;;1.00;1.00;;;;;;;8.53;92.94;97700.19;4454037;32;35054;-74
2022/11/18 04:23:07;;;;;;;2.83;2.50;;;;;;;8.96;90.89;97690.28;4455196;32;34577;-74
2022/11/18 04:25:35;;;;;;;7.07;2.65;;;;;;;8.68;91.57;97691.09;4455133;32;34160;-74
2022/11/18 04:28:03;;;;;;;2.12;1.92;;;;;;;8.77;91.63;97682.19;4455290;32;33931;-74
2022/11/18 04:30:32;;;;;;;1.77;1.60;;;;;;;8.60;92.16;97680.12;4454078;32;34892;-74
2022/11/18 04:33:00;;;;;;;1.20;1.15;;;;;;;8.68;92.15;97684.19;4455185;32;34572;-74
2022/11/18 04:35:28;;;;;;;3.35;3.05;;;;;;;8.70;92.69;97679.81;4455069;32;34565;-74
2022/11/18 04:37:57;;;;;;;0.93;0.93;;;;;;;8.87;91.29;97684.47;4453818;32;34548;-74
2022/11/18 04:40:25;;;;;;;3.95;1.17;;;;;;;9.15;89.63;97685.38;4455142;32;35059;-74
2022/11/18 04:42:53;;;;;;;2.58;2.15;;;;;;;9.49;87.71;97698.97;4454956;32;35209;-74
2022/11/18 04:45:21;;;;;;;1.33;1.33;;;;;;;8.98;88.61;97710.09;4455145;32;33572;-74
2022/11/18 04:47:49;;;;;;;2.35;2.17;;;;;;;8.76;90.51;97712.50;4455289;32;33957;-74
2022/11/18 04:50:17;;;;;;;2.40;2.20;;;;;;;8.60;92.09;97714.69;4455014;32;36045;-74
2022/11/18 04:52:46;;;;;;;0.80;0.80;;;;;;;8.77;91.51;97723.72;4455006;32;34441;-74
2022/11/18 04:55:14;;;;;;;5.70;5.18;;;;;;;8.61;92.52;97728.50;4455107;32;34184;-74
2022/11/18 04:57:42;;;;;;;2.53;1.83;;;;;;;8.30;95.08;97721.56;4455097;32;33863;-74
2022/11/18 05:00:11;;;;;;;2.33;2.12;;;;;;;8.07;96.64;97725.62;4454916;32;34898;-74
2022/11/18 05:02:39;;;;;;;3.20;2.90;;;;;;;8.15;96.34;97713.31;4454900;32;35304;-74
2022/11/18 05:05:07;;;;;;;1.95;1.85;;;;;;;8.56;94.45;97717.41;4455010;32;33537;-74
2022/11/18 05:07:36;;;;;;;3.10;2.58;;;;;;;8.81;92.73;97714.97;4454938;32;33990;-74
2022/11/18 05:10:04;;;;;;;1.33;1.08;;;;;;;9.33;89.73;97704.69;4454904;32;34822;-74
2022/11/18 05:12:47;;;;;;;1.70;1.60;;;;;;;8.84;91.56;97696.69;4454922;32;34050;-74
2022/11/18 05:15:17;;;;;;;1.67;1.58;;;;;;;8.72;93.27;97692.72;4454969;32;33459;-74
2022/11/18 05:17:46;;;;;;;3.05;2.78;;;;;;;8.92;91.45;97685.16;4453789;32;34553;-74
2022/11/18 05:20:15;;;;;;;3.40;3.10;;;;;;;9.51;88.97;97693.69;4453432;32;35047;-74
2022/11/18 05:22:43;;;;;;;0.90;0.90;;;;;;;8.83;91.29;97688.06;4453651;32;35297;-73
2022/11/18 05:25:11;;;;;;;3.45;3.17;;;;;;;8.64;92.54;97690.34;4454856;32;33782;-74
2022/11/18 05:27:39;;;;;;;2.95;1.87;;;;;;;8.49;93.55;97691.66;4454742;32;34769;-74
2022/11/18 05:30:08;;;;;;;3.15;2.20;;;;;;;8.84;91.33;97692.37;4454849;32;35055;-74
2022/11/18 05:32:36;;;;;;;1.20;1.20;;;;;;;8.63;93.76;97692.97;4454814;32;34473;-74
2022/11/18 05:35:05;;;;;;;0.80;0.80;;;;;;;8.79;92.49;97690.78;4454771;32;33401;-74
2022/11/18 05:37:33;;;;;;;2.30;2.10;;;;;;;8.85;91.55;97694.03;4454802;32;34678;-74
2022/11/18 05:40:01;;;;;;;2.85;2.65;;;;;;;8.63;93.66;97692.97;4454808;32;35143;-74
2022/11/18 05:45:18;;;;;;;1.25;1.15;;;;;;;9.26;90.34;97689.28;4454780;32;34234;-74
2022/11/18 05:48:03;;;;;;;1.60;1.50;;;;;;;9.13;90.47;97697.56;4454993;32;33103;-74
2022/11/18 05:50:34;;;;;;;2.75;2.55;;;;;;;8.74;93.48;97696.12;4454781;32;34959;-74
2022/11/18 05:53:03;;;;;;;1.75;1.65;;;;;;;8.85;93.47;97694.03;4453771;32;33752;-74
2022/11/18 05:55:43;;;;;;;1.00;1.00;;;;;;;8.94;92.18;97694.66;4454602;32;33608;-74
2022/11/18 05:58:11;;;;;;;4.12;3.47;;;;;;;9.19;90.98;97697.34;4453555;32;34737;-74
2022/11/18 06:00:39;;;;;;;1.70;1.60;;;;;;;9.14;90.83;97705.31;4454535;32;35064;-74
2022/11/18 06:03:14;;;;;;;1.25;1.25;;;;;;;9.04;90.91;97704.72;4454754;32;34455;-74
2022/11/18 06:05:43;;;;;;;2.05;1.92;;;;;;;9.11;91.00;97700.19;4454199;32;33413;-74
2022/11/18 06:08:16;;;;;;;5.30;3.37;;;;;;;9.26;90.61;97701.44;4446307;32;33764;-72
2022/11/18 06:10:46;;;;;;;4.68;4.25;;;;;;;9.27;90.61;97693.59;4437751;32;34753;-72
2022/11/18 06:13:20;;;;;;;4.45;3.42;;;;;;;9.11;91.86;97700.19;4438688;32;34151;-72
2022/11/18 06:15:48;;;;;;;7.05;4.37;;;;;;;8.80;94.12;97695.09;4438697;32;33453;-73
2022/11/18 06:18:29;;;;;;;1.27;1.25;;;;;;;9.14;92.94;97699.22;4437675;32;34781;-73
2022/11/18 06:20:59;;;;;;;2.28;2.08;;;;;;;9.14;93.29;97691.44;4424959;32;35161;-72
2022/11/18 06:23:33;;;;;;;3.97;2.55;;;;;;;9.23;92.20;97684.22;4437484;32;34524;-73
2022/11/18 06:26:02;;;;;;;3.78;2.30;;;;;;;9.15;92.13;97685.38;4437366;32;34190;-72
2022/11/18 06:28:32;;;;;;;2.72;2.50;;;;;;;9.28;91.55;97671.94;4437636;32;34365;-73
2022/11/18 06:31:00;;;;;;;3.45;3.15;;;;;;;9.46;90.84;97675.69;4437942;32;34979;-73
2022/11/18 06:33:28;;;;;;;1.77;1.58;;;;;;;9.59;90.62;97670.91;4438461;32;35060;-73
2022/11/18 06:35:57;;;;;;;3.55;3.33;;;;;;;9.41;91.24;97677.59;4438807;32;33458;-74
2022/11/18 06:38:25;;;;;;;2.53;2.33;;;;;;;9.56;91.15;97665.81;4438419;32;34636;-73
2022/11/18 06:40:57;;;;;;;3.80;2.85;;;;;;;9.39;91.46;97673.31;4438351;32;34708;-73
2022/11/18 06:43:40;;;;;;;1.95;1.83;;;;;;;9.60;90.26;97672.62;4424488;32;34543;-72
2022/11/18 06:49:03;;;;;;;3.60;1.65;;;;;;;9.88;89.53;97692.47;4437361;32;33877;-73
2022/11/18 06:51:31;;;;;;;5.22;3.17;;;;;;;9.26;91.81;97689.28;4424278;32;34148;-73
2022/11/18 06:53:59;;;;;;;3.10;2.83;;;;;;;9.67;90.38;97684.50;4437125;32;35173;-73
2022/11/18 06:56:30;;;;;;;2.92;1.75;;;;;;;9.43;91.91;97693.13;4437098;32;32175;-74
2022/11/18 06:58:58;;;;;;;1.87;1.77;;;;;;;9.48;91.30;97692.06;4437130;32;32249;-75
2022/11/18 07:01:29;;;;;;;5.90;2.30;;;;;;;9.64;90.48;97683.78;4436638;32;35070;-74
2022/11/18 07:03:58;;;;;;;4.55;4.15;;;;;;;9.52;91.13;97685.00;4437035;32;34481;-73
2022/11/18 07:06:29;;;;;;;2.60;2.40;;;;;;;9.46;92.07;97691.28;4435848;32;33335;-73
2022/11/18 07:08:59;;;;;;;9.95;5.12;;;;;;;9.64;88.87;97695.00;4437163;32;34661;-73
2022/11/18 07:11:28;;;;;;;3.03;2.80;;;;;;;9.27;92.34;97696.22;4438232;32;35264;-74
2022/11/18 07:13:56;;;;;;;2.45;2.22;;;;;;;9.53;91.52;97688.47;4436961;32;34593;-75
2022/11/18 07:16:25;;;;;;;2.97;2.40;;;;;;;9.81;89.35;97685.78;4438124;32;33488;-74
2022/11/18 07:18:55;;;;;;;2.25;2.12;;;;;;;9.40;91.29;97669.84;4436916;32;33840;-74
2022/11/18 07:21:25;;;;;;;2.42;2.22;;;;;;;9.51;90.79;97674.66;4437983;32;35044;-74
2022/11/18 07:23:55;;;;;;;4.05;3.75;;;;;;;9.79;89.24;97662.44;4437958;32;34771;-74
2022/11/18 07:26:23;;;;;;;6.10;5.53;;;;;;;9.58;90.36;97664.03;4436629;32;33263;-74
2022/11/18 07:28:52;;;;;;;3.45;3.03;;;;;;;9.74;89.20;97659.16;4436670;32;33981;-74
2022/11/18 07:31:21;;;;;;;1.30;1.23;;;;;;;9.63;90.07;97659.50;4437824;32;35043;-74
2022/11/18 07:33:52;;;;;;;1.58;1.48;;;;;;;9.38;91.46;97680.28;4437948;32;34426;-74
2022/11/18 07:36:22;;;;;;;4.35;1.87;;;;;;;9.21;93.23;97669.56;4436712;32;33517;-74
2022/11/18 07:38:51;;;;;;;1.85;1.75;;;;;;;9.25;93.87;97666.84;4437798;32;33826;-74
2022/11/18 07:41:21;;;;;;;2.40;2.10;;;;;;;9.48;92.79;97673.03;4437685;32;35124;-74
2022/11/18 07:43:50;;;;;;;8.52;5.62;;;;;;;9.41;93.75;97667.19;4439447;32;33704;-74
2022/11/18 07:46:28;;;;;;;2.60;2.40;;;;;;;9.28;93.98;97660.69;4427224;32;33324;-74
2022/11/18 07:48:58;;;;;;;2.00;1.90;;;;;;;9.62;92.00;97665.62;4439990;32;34754;-74
2022/11/18 07:51:29;;;;;;;5.18;4.10;;;;;;;9.56;91.30;97654.59;4440098;32;36001;-74
2022/11/18 07:53:57;;;;;;;6.85;6.18;;;;;;;9.37;93.67;97662.13;4440025;32;33685;-74
2022/11/18 07:56:26;;;;;;;2.30;2.15;;;;;;;9.46;92.79;97662.69;4439938;32;33775;-74
2022/11/18 07:58:55;;;;;;;1.08;1.08;;;;;;;9.24;92.65;97662.53;4440002;32;34807;-74
2022/11/18 08:01:27;;;;;;;1.83;1.73;;;;;;;9.38;92.34;97656.06;4438846;32;34895;-74
2022/11/18 08:03:57;;;;;;;0.68;0.68;;;;;;;9.64;90.78;97649.97;4438790;32;35107;-74
2022/11/18 08:06:25;;;;;;;3.28;3.08;;;;;;;9.46;92.28;97654.91;4438825;32;34313;-74
2022/11/18 08:08:53;;;;;;;4.62;1.85;;;;;;;9.49;91.64;97660.00;4440204;32;33617;-74
2022/11/18 08:11:22;;;;;;;2.12;2.03;;;;;;;9.55;91.00;97653.75;4439077;32;35021;-74
2022/11/18 08:13:52;;;;;;;1.27;1.02;;;;;;;9.41;92.06;97651.59;4439830;32;34471;-74
2022/11/18 08:16:23;;;;;;;3.12;2.67;;;;;;;9.34;93.32;97638.87;4439879;32;33445;-74
2022/11/18 08:18:52;;;;;;;1.42;1.35;;;;;;;9.17;93.45;97636.81;4438700;32;33902;-74
2022/11/18 08:21:21;;;;;;;6.22;4.15;;;;;;;9.13;93.87;97646.47;4439625;32;35768;-74
2022/11/18 08:23:54;;;;;;;2.15;1.75;;;;;;;9.25;94.10;97640.03;4438554;32;35274;-74
2022/11/18 08:26:24;;;;;;;1.67;1.58;;;;;;;9.28;94.56;97640.78;4426208;32;32983;-74
2022/11/18 08:28:53;;;;;;;3.83;3.12;;;;;;;9.21;93.83;97635.81;4440138;32;34005;-74
2022/11/18 08:31:24;;;;;;;1.85;1.75;;;;;;;9.46;93.01;97643.66;4438484;32;35891;-74
2022/11/18 08:33:56;;;;;;;2.08;1.98;;;;;;;9.17;94.33;97634.22;4440035;32;34493;-74
2022/11/18 08:36:27;;;;;;;0.50;0.50;;;;;;;9.61;92.76;97624.94;4439757;32;34294;-73
2022/11/18 08:38:57;;;;;;;1.60;1.48;;;;;;;9.67;91.49;97616.94;4439741;32;34063;-73
2022/11/18 08:41:35;;;;;;;0.70;0.70;;;;;;;9.77;91.11;97622.66;4439820;32;35819;-73
2022/11/18 08:44:04;;;;;;;2.60;2.42;;;;;;;9.70;91.12;97626.38;4439632;32;34590;-73
2022/11/18 08:46:33;;;;;;;2.17;1.98;;;;;;;9.59;91.65;97618.94;4438521;32;33738;-72
2022/11/18 08:49:01;;;;;;;0.77;0.77;;;;;;;9.64;91.60;97608.41;4438585;32;33825;-72
2022/11/18 08:51:29;;;;;;;0.75;0.75;;;;;;;9.61;91.12;97601.53;4439629;32;35197;-74
2022/11/18 08:53:58;;;;;;;4.12;3.80;;;;;;;9.80;91.34;97603.50;4439287;32;34473;-72
2022/11/18 08:56:26;;;;;;;1.15;1.00;;;;;;;9.97;89.83;97601.16;4439563;32;33588;-72
2022/11/18 08:58:55;;;;;;;0.90;0.88;;;;;;;10.03;90.27;97598.31;4439488;32;33897;-73
2022/11/18 09:01:23;;;;;;;1.27;1.25;;;;;;;10.02;89.27;97612.25;4439495;32;34925;-73
2022/11/18 09:03:51;;;;;;;2.00;1.77;;;;;;;9.97;89.26;97608.97;4438356;32;34515;-73
2022/11/18 09:06:21;;;;;;;1.42;1.40;;;;;;;9.97;89.60;97608.97;4439576;32;33366;-75
2022/11/18 09:08:50;;;;;;;1.17;1.17;;;;;;;10.12;88.04;97611.91;4438564;32;34252;-75
2022/11/18 09:11:20;;;;;;;1.10;1.10;;;;;;;9.95;89.14;97626.34;4439470;32;35883;-74
2022/11/18 09:13:54;;;;;;;2.65;2.45;;;;;;;10.13;87.37;97624.84;4439477;32;34972;-75
2022/11/18 09:16:43;;;;;;;0.50;0.50;;;;;;;9.66;89.22;97615.22;4439432;32;34319;-74
2022/11/18 09:19:13;;;;;;;1.52;1.48;;;;;;;9.70;90.60;97609.94;4438266;32;34019;-73
2022/11/18 09:22:01;;;;;;;12.48;1.73;;;;;;;9.99;88.55;97609.75;4439280;32;35027;-75
2022/11/18 09:24:29;;;;;;;0.60;0.60;;;;;;;9.72;89.95;97602.94;4439320;32;35475;-77
2022/11/18 09:27:02;;;;;;;0.50;0.50;;;;;;;9.62;90.25;97598.06;4439146;32;33553;-74
2022/11/18 09:29:31;;;;;;;1.17;1.12;;;;;;;9.85;89.51;97584.25;4439356;32;34805;-73
2022/11/18 09:32:02;;;;;;;1.70;1.42;;;;;;;9.67;90.58;97584.87;4439326;32;35069;-74
2022/11/18 09:34:33;;;;;;;0.85;0.85;;;;;;;9.77;91.06;97588.84;4438259;32;35275;-76
2022/11/18 09:37:06;;;;;;;0.50;0.50;;;;;;;9.36;92.10;97579.94;4439435;32;33730;-74
2022/11/18 09:39:36;;;;;;;1.00;0.90;;;;;;;9.71;91.48;97583.06;4438250;32;34681;-74
2022/11/18 09:42:16;;;;;;;7.22;2.83;;;;;;;9.80;90.19;97585.31;4439169;32;35116;-74
2022/11/18 09:44:47;;;;;;;2.28;2.10;;;;;;;9.70;90.34;97584.78;4439242;32;35099;-71
2022/11/18 09:47:25;;;;;;;0.65;0.65;;;;;;;9.57;92.25;97581.78;4439240;32;34001;-74
2022/11/18 09:49:56;;;;;;;1.08;1.02;;;;;;;9.87;89.92;97579.84;4439254;32;34043;-75
2022/11/18 09:52:30;;;;;;;3.67;2.80;;;;;;;9.60;91.40;97563.50;4439248;32;35226;-73
2022/11/18 09:55:14;;;;;;;1.67;1.58;;;;;;;9.64;92.27;97556.44;4438056;32;34477;-78
2022/11/18 09:57:51;;;;;;;4.85;2.30;;;;;;;9.75;90.54;97548.25;4439209;32;33566;-73
2022/11/18 10:00:24;;;;;;;1.20;1.10;;;;;;;9.84;90.84;97537.50;4439151;32;33908;-74
2022/11/18 10:03:08;;;;;;;4.22;3.83;;;;;;;9.63;91.37;97528.72;4438163;32;35075;-75
2022/11/18 10:05:39;;;;;;;1.98;1.87;;;;;;;9.86;91.45;97527.88;4436958;32;34418;-76
2022/11/18 10:08:17;;;;;;;2.95;2.65;;;;;;;9.60;92.80;97526.25;4439077;32;34245;-74
2022/11/18 10:10:59;;;;;;;2.05;1.95;;;;;;;9.66;91.83;97528.62;4439022;32;33912;-74
2022/11/18 10:13:44;;;;;;;1.70;1.60;;;;;;;9.45;93.88;97538.03;4438004;32;35162;-75
2022/11/18 10:16:25;;;;;;;1.70;1.60;;;;;;;9.59;92.09;97551.38;4437788;32;34422;-73
2022/11/18 10:19:34;;;;;;;2.17;1.80;;;;;;;9.44;92.54;97557.13;4437832;32;33445;-73
2022/11/18 10:22:19;;;;;;;1.98;1.87;;;;;;;9.51;92.56;97536.97;4405920;32;33990;-72
2022/11/18 10:24:56;;;;;;;2.90;2.70;;;;;;;9.55;90.97;97529.03;4450854;32;35899;-71
2022/11/18 10:27:33;;;;;;;4.47;2.60;;;;;;;9.55;91.29;97533.34;4447768;32;34590;-73
2022/11/18 10:30:12;;;;;;;2.37;2.12;;;;;;;9.15;92.68;97530.41;4447758;32;33666;-73
2022/11/18 10:32:56;;;;;;;1.08;1.02;;;;;;;9.34;93.27;97528.03;4454220;32;33955;-74
2022/11/18 10:35:30;;;;;;;1.35;1.25;;;;;;;9.63;92.64;97531.34;4454194;32;35039;-74
2022/11/18 10:38:14;;;;;;;6.70;3.22;;;;;;;9.70;90.68;97526.78;4444169;32;34431;-74
2022/11/18 10:40:46;;;;;;;1.12;1.02;;;;;;;9.75;90.67;97528.28;4454078;32;33470;-74
2022/11/18 10:43:47;;;;;;;2.30;2.17;;;;;;;9.58;92.23;97521.12;4454170;32;34682;-73
2022/11/18 10:46:30;;;;;;;1.62;1.52;;;;;;;9.64;91.20;97520.88;4441430;32;35809;-75
2022/11/18 10:49:08;;;;;;;1.12;1.12;;;;;;;9.53;91.60;97519.56;4446849;32;34140;-75
2022/11/18 10:51:38;;;;;;;1.52;1.42;;;;;;;9.22;92.95;97516.31;4438629;32;33464;-73
2022/11/18 10:54:21;;;;;;;1.35;1.25;;;;;;;9.02;94.39;97517.00;4438682;32;34453;-74
2022/11/18 10:56:52;;;;;;;2.92;2.67;;;;;;;9.79;90.56;97521.22;4437198;32;35057;-75
2022/11/18 10:59:53;;;;;;;0.75;0.75;;;;;;;9.16;92.68;97519.13;4438350;32;34331;-77
2022/11/18 11:02:38;;;;;;;4.70;3.30;;;;;;;9.06;93.57;97525.53;4449880;32;33497;-71
2022/11/18 11:05:19;;;;;;;1.48;1.37;;;;;;;9.27;91.93;97524.78;4437057;32;33984;-71
2022/11/18 11:08:02;;;;;;;1.58;1.48;;;;;;;9.30;91.69;97516.06;4437067;32;35978;-76
2022/11/18 11:10:54;;;;;;;0.62;0.62;;;;;;;8.87;93.98;97523.53;4438156;32;34406;-76
2022/11/18 11:13:26;;;;;;;1.67;1.58;;;;;;;9.14;93.60;97527.84;4437094;32;33459;-72
2022/11/18 11:15:58;;;;;;;0.70;0.70;;;;;;;8.88;95.05;97537.38;4438122;32;33980;-72
2022/11/18 11:18:41;;;;;;;3.53;2.90;;;;;;;8.95;96.08;97541.47;4439333;32;35180;-72
2022/11/18 11:21:16;;;;;;;0.93;0.93;;;;;;;8.68;97.91;97548.38;4440590;32;35235;-72
2022/11/18 11:23:45;;;;;;;0.82;0.82;;;;;;;8.50;98.92;97542.88;4448693;32;34363;-71
2022/11/18 11:26:19;;;;;;;1.45;1.23;;;;;;;8.63;99.66;97537.31;4439820;32;33811;-75
2022/11/18 11:29:27;;;;;;;1.35;1.27;;;;;;;9.11;96.81;97536.63;4440094;32;35120;-76
2022/11/18 11:31:58;;;;;;;2.15;2.00;;;;;;;9.23;94.73;97536.19;4450241;32;34497;-71
2022/11/18 11:34:28;;;;;;;1.37;0.95;;;;;;;8.97;97.25;97528.44;4454688;32;33519;-76
2022/11/18 11:37:03;;;;;;;3.35;3.03;;;;;;;9.27;96.06;97526.56;4455551;32;33892;-71
2022/11/18 11:39:52;;;;;;;1.50;1.40;;;;;;;9.85;91.39;97527.06;4454517;32;34594;-71
2022/11/18 11:42:41;;;;;;;2.08;1.45;;;;;;;9.67;92.68;97523.37;4455410;32;34338;-75
2022/11/18 11:45:20;;;;;;;0.90;0.90;;;;;;;9.11;96.51;97521.03;4454419;32;33463;-75
2022/11/18 11:48:17;;;;;;;;;;;;;;;8.92;98.79;97513.84;4454824;32;34762;-71
2022/11/18 11:50:54;;;;;;;0.70;0.70;;;;;;;8.91;98.08;97524.28;4455573;32;35381;-76
2022/11/18 11:53:47;;;;;;;2.50;1.08;;;;;;;9.52;95.11;97513.53;4455521;32;34476;-75
2022/11/18 11:56:39;;;;;;;0.57;0.57;;;;;;;9.45;95.12;97501.66;4447606;32;33559;-70
2022/11/18 11:59:29;;;;;;;1.08;1.08;;;;;;;9.93;90.42;97511.16;4451422;32;33971;-75
2022/11/18 12:02:31;;;;;;;1.23;1.23;;;;;;;9.49;93.34;97505.84;4452800;32;35092;-76
2022/11/18 12:05:25;;;;;;;1.48;1.20;;;;;;;9.28;94.41;97518.72;4448322;32;35307;-73
2022/11/18 12:08:16;;;;;;;5.80;1.52;;;;;;;8.99;96.84;97518.84;4448381;32;33512;-72
2022/11/18 12:11:25;;;;;;;0.85;0.85;;;;;;;9.13;96.84;97515.78;4455206;32;33873;-75
2022/11/18 12:14:09;;;;;;;0.60;0.60;;;;;;;9.02;97.64;97509.22;4454269;32;35163;-73
2022/11/18 12:16:44;;;;;;;0.50;0.50;;;;;;;9.43;95.44;97508.69;4454230;32;34423;-76
2022/11/18 12:19:14;;;;;;;0.45;0.45;;;;;;;9.18;94.59;97503.50;4455342;32;33667;-76
2022/11/18 12:21:44;;;;;;;1.70;1.60;;;;;;;9.48;93.08;97491.19;4454083;32;34692;-73
2022/11/18 12:24:19;;;;;;;3.40;2.30;;;;;;;9.58;92.75;97487.34;4455324;32;36032;-76
2022/11/18 12:26:48;;;;;;;1.02;1.02;;;;;;;9.66;92.06;97490.50;4454947;32;34563;-73